Time;durP1;ratioP1;P1;durP2;ratioP2;P2;SDS_P1;SDS_P2;PMS_P1;PMS_P2;Temp;Humidity;BMP_temperature;BMP_pressure;BME280_temperature;BME280_humidity;BME280_pressure;Samples;Min_cycle;Max_cycle;Signal;HPM_P1;HPM_P2
2021/11/16 00:02:02;;;;;;;15.95;11.38;;;5.30;99.90;;;;;;5067621;28;20055;-54
2021/11/16 00:04:28;;;;;;;20.63;11.88;;;5.30;99.90;;;;;;5058554;28;20043;-55
2021/11/16 00:06:54;;;;;;;16.15;10.70;;;5.30;99.90;;;;;;5063140;28;20043;-51
2021/11/16 00:09:20;;;;;;;19.15;11.13;;;5.30;99.90;;;;;;5047782;28;20519;-51
2021/11/16 00:11:46;;;;;;;18.75;11.23;;;5.30;99.90;;;;;;5049313;28;20155;-55
2021/11/16 00:14:12;;;;;;;15.60;11.52;;;5.30;99.90;;;;;;5064001;28;20062;-54
2021/11/16 00:16:39;;;;;;;19.45;12.13;;;5.30;99.90;;;;;;5068971;28;20116;-51
2021/11/16 00:19:09;;;;;;;15.75;11.30;;;5.30;99.90;;;;;;5033138;28;20036;-54
2021/11/16 00:21:35;;;;;;;18.92;12.35;;;5.30;99.90;;;;;;5057453;28;20013;-55
2021/11/16 00:24:08;;;;;;;19.90;11.70;;;5.30;99.90;;;;;;5068808;28;20016;-55
2021/11/16 00:26:34;;;;;;;15.90;11.43;;;5.30;99.90;;;;;;5055053;28;20540;-55
2021/11/16 00:28:59;;;;;;;18.40;11.35;;;5.30;99.90;;;;;;5048625;28;20151;-56
2021/11/16 00:31:25;;;;;;;18.42;12.68;;;5.20;99.90;;;;;;5048665;28;20043;-55
2021/11/16 00:33:50;;;;;;;22.77;12.20;;;5.20;99.90;;;;;;5048419;28;20063;-52
2021/11/16 00:36:16;;;;;;;19.95;12.88;;;5.20;99.90;;;;;;5030118;28;20079;-54
2021/11/16 00:38:42;;;;;;;19.45;12.73;;;5.20;99.90;;;;;;5061493;28;20086;-54
2021/11/16 00:41:09;;;;;;;17.08;11.55;;;5.20;99.90;;;;;;5068554;28;20671;-55
2021/11/16 00:43:35;;;;;;;19.38;12.05;;;5.20;99.90;;;;;;5068819;28;20032;-54
2021/11/16 00:46:01;;;;;;;17.90;12.30;;;5.20;99.90;;;;;;5068170;28;20025;-56
2021/11/16 00:48:26;;;;;;;21.60;13.40;;;5.20;99.90;;;;;;5068134;28;20047;-54
2021/11/16 00:50:56;;;;;;;18.27;12.75;;;5.20;99.90;;;;;;5068375;28;20446;-53
2021/11/16 00:53:24;;;;;;;18.65;12.30;;;5.20;99.90;;;;;;5068203;28;20036;-54
2021/11/16 00:55:51;;;;;;;20.50;12.82;;;5.20;99.90;;;;;;5068245;28;20104;-54
2021/11/16 00:58:16;;;;;;;19.00;12.52;;;5.20;99.90;;;;;;5066332;28;20024;-52
2021/11/16 01:00:43;;;;;;;17.60;12.90;;;5.20;99.90;;;;;;5068284;28;20036;-56
2021/11/16 01:03:10;;;;;;;22.60;13.98;;;5.20;99.90;;;;;;5068136;28;20029;-58
2021/11/16 01:05:36;;;;;;;19.92;12.10;;;5.20;99.90;;;;;;5050408;28;20029;-55
2021/11/16 01:08:02;;;;;;;20.33;12.95;;;5.20;99.90;;;;;;5067596;28;20032;-56
2021/11/16 01:10:38;;;;;;;19.23;12.98;;;5.20;99.90;;;;;;5067394;28;20033;-56
2021/11/16 01:13:04;;;;;;;22.75;13.13;;;5.20;99.90;;;;;;5028199;28;20037;-52
2021/11/16 01:15:30;;;;;;;20.63;13.85;;;5.20;99.90;;;;;;5063587;28;20440;-57
2021/11/16 01:17:56;;;;;;;22.25;13.77;;;5.20;99.90;;;;;;5067745;28;20048;-54
2021/11/16 01:20:22;;;;;;;22.13;13.23;;;5.20;99.90;;;;;;5068490;28;20511;-55
2021/11/16 01:22:53;;;;;;;17.15;12.43;;;5.20;99.90;;;;;;5067119;28;20027;-52
2021/11/16 01:25:20;;;;;;;18.10;13.52;;;5.20;99.90;;;;;;5066405;28;20044;-56
2021/11/16 01:27:45;;;;;;;20.67;13.88;;;5.20;99.90;;;;;;5067514;28;20086;-54
2021/11/16 01:30:15;;;;;;;22.92;14.85;;;5.20;99.90;;;;;;5051134;28;20508;-55
2021/11/16 01:32:45;;;;;;;23.15;14.63;;;5.20;99.90;;;;;;5054482;28;20025;-56
2021/11/16 01:35:11;;;;;;;22.80;13.30;;;5.10;99.90;;;;;;5054851;28;20035;-53
2021/11/16 01:37:38;;;;;;;21.80;13.27;;;5.10;99.90;;;;;;5055875;28;20025;-55
2021/11/16 01:40:09;;;;;;;26.70;15.05;;;5.10;99.90;;;;;;5048074;28;20018;-55
2021/11/16 01:42:35;;;;;;;21.10;13.32;;;5.10;99.90;;;;;;5047823;28;20024;-52
2021/11/16 01:45:01;;;;;;;20.38;14.07;;;5.10;99.90;;;;;;5045995;28;20424;-58
2021/11/16 01:47:27;;;;;;;21.85;13.93;;;5.10;99.90;;;;;;5045274;28;20044;-54
2021/11/16 01:49:52;;;;;;;20.75;13.68;;;5.10;99.90;;;;;;5045791;28;20516;-51
2021/11/16 01:52:18;;;;;;;20.75;14.23;;;5.10;99.90;;;;;;5046633;28;20033;-52
2021/11/16 01:54:44;;;;;;;21.15;14.07;;;5.10;99.90;;;;;;5047704;28;20373;-55
2021/11/16 01:57:10;;;;;;;20.58;14.35;;;5.10;99.90;;;;;;5048510;28;20103;-54
2021/11/16 01:59:36;;;;;;;25.05;14.50;;;5.10;99.90;;;;;;5029984;28;20388;-58
2021/11/16 02:02:03;;;;;;;23.23;14.63;;;5.10;99.90;;;;;;5047564;28;20025;-53
2021/11/16 02:04:28;;;;;;;26.25;15.77;;;5.10;99.90;;;;;;5046206;28;20033;-56
2021/11/16 02:06:54;;;;;;;24.75;15.43;;;5.10;99.90;;;;;;5048155;28;20029;-53
2021/11/16 02:09:20;;;;;;;23.75;15.27;;;5.10;99.90;;;;;;5047318;28;20676;-55
2021/11/16 02:11:46;;;;;;;22.13;14.85;;;5.10;99.90;;;;;;5047969;28;20400;-57
2021/11/16 02:14:17;;;;;;;25.42;15.55;;;5.10;99.90;;;;;;5047467;28;20481;-56
2021/11/16 02:16:44;;;;;;;24.25;15.90;;;5.10;99.90;;;;;;5047626;28;20511;-51
2021/11/16 02:19:12;;;;;;;25.27;14.75;;;5.10;99.90;;;;;;5046471;28;20024;-56
2021/11/16 02:21:38;;;;;;;21.98;14.93;;;5.10;99.90;;;;;;5046648;28;20083;-55
2021/11/16 02:24:06;;;;;;;25.25;15.85;;;5.00;99.90;;;;;;5047478;28;20025;-54
2021/11/16 02:26:32;;;;;;;21.30;15.57;;;5.00;99.90;;;;;;5060435;28;20078;-56
2021/11/16 02:28:59;;;;;;;23.00;15.10;;;5.00;99.90;;;;;;5067627;28;20048;-54
2021/11/16 02:31:25;;;;;;;22.75;14.98;;;5.00;99.90;;;;;;5068095;28;20397;-52
2021/11/16 02:33:51;;;;;;;24.90;15.35;;;5.00;99.90;;;;;;5057270;28;20076;-55
2021/11/16 02:36:18;;;;;;;24.05;15.85;;;5.00;99.90;;;;;;5051780;28;20029;-56
2021/11/16 02:38:44;;;;;;;30.45;15.82;;;5.00;99.90;;;;;;5052064;28;20104;-52
2021/11/16 02:41:10;;;;;;;24.30;15.55;;;5.00;99.90;;;;;;5051296;28;20628;-55
2021/11/16 02:43:38;;;;;;;23.67;15.90;;;5.00;99.90;;;;;;5055394;28;20031;-52
2021/11/16 02:46:03;;;;;;;24.55;15.15;;;5.00;99.90;;;;;;5069123;28;20036;-56
2021/11/16 02:48:31;;;;;;;24.38;14.38;;;5.00;99.90;;;;;;5050389;28;20025;-53
2021/11/16 02:51:00;;;;;;;22.98;15.65;;;5.00;99.90;;;;;;5033864;28;20036;-51
2021/11/16 02:53:26;;;;;;;25.42;16.27;;;5.00;99.90;;;;;;5055180;28;20028;-57
2021/11/16 02:55:52;;;;;;;30.40;17.00;;;5.00;99.90;;;;;;5058833;28;20029;-56
2021/11/16 02:58:19;;;;;;;25.80;16.13;;;5.00;99.90;;;;;;5051986;28;20035;-55
2021/11/16 03:00:50;;;;;;;23.30;15.93;;;5.00;99.90;;;;;;5061314;28;20040;-54
2021/11/16 03:03:17;;;;;;;24.85;15.95;;;4.90;99.90;;;;;;5050403;28;20029;-57
2021/11/16 03:05:43;;;;;;;28.95;17.00;;;5.00;99.90;;;;;;5056336;28;20129;-57
2021/11/16 03:08:24;;;;;;;26.42;16.95;;;5.00;99.90;;;;;;5056048;28;20496;-53
2021/11/16 03:10:54;;;;;;;29.77;17.17;;;5.00;99.90;;;;;;5050212;28;20159;-55
2021/11/16 03:13:20;;;;;;;25.27;16.00;;;5.00;99.90;;;;;;5050612;28;20083;-52
2021/11/16 03:15:46;;;;;;;30.45;18.30;;;5.00;99.90;;;;;;5059875;28;20043;-54
2021/11/16 03:18:12;;;;;;;28.50;17.48;;;5.00;99.90;;;;;;5069554;28;20021;-55
2021/11/16 03:20:39;;;;;;;27.00;17.75;;;5.00;99.90;;;;;;5070378;28;20112;-56
2021/11/16 03:23:11;;;;;;;27.60;16.13;;;5.00;99.90;;;;;;5065937;28;20441;-55
2021/11/16 03:25:42;;;;;;;26.75;15.70;;;5.00;99.90;;;;;;5058164;28;20032;-54
2021/11/16 03:28:10;;;;;;;25.77;15.55;;;4.90;99.90;;;;;;5069259;28;20028;-57
2021/11/16 03:30:37;;;;;;;26.55;16.38;;;4.90;99.90;;;;;;5069729;28;20040;-56
2021/11/16 03:33:04;;;;;;;27.88;18.30;;;4.90;99.90;;;;;;5070012;28;20031;-56
2021/11/16 03:35:30;;;;;;;27.42;17.13;;;4.90;99.90;;;;;;5062090;28;20075;-54
2021/11/16 03:37:58;;;;;;;25.98;17.30;;;4.90;99.90;;;;;;5049721;28;20496;-51
2021/11/16 03:40:27;;;;;;;33.63;18.42;;;4.90;99.90;;;;;;5050777;28;20024;-54
2021/11/16 03:42:53;;;;;;;29.55;18.17;;;4.90;99.90;;;;;;5048846;28;20021;-52
2021/11/16 03:45:27;;;;;;;32.20;18.88;;;4.90;99.90;;;;;;5062809;28;20515;-54
2021/11/16 03:47:55;;;;;;;31.77;18.23;;;4.90;99.90;;;;;;5031553;28;20021;-56
2021/11/16 03:50:24;;;;;;;27.58;17.35;;;4.90;99.90;;;;;;5056943;28;20102;-56
2021/11/16 03:52:56;;;;;;;30.90;19.13;;;4.90;99.90;;;;;;5064919;28;20503;-54
2021/11/16 03:55:25;;;;;;;29.52;17.77;;;4.80;99.90;;;;;;5058156;28;20032;-53
2021/11/16 03:57:54;;;;;;;32.63;18.10;;;4.80;99.90;;;;;;5063708;28;20143;-54
2021/11/16 04:00:24;;;;;;;27.80;15.90;;;4.80;99.90;;;;;;5068683;28;20512;-54
2021/11/16 04:02:49;;;;;;;28.88;17.20;;;4.70;99.90;;;;;;5069978;28;20036;-57
2021/11/16 04:05:15;;;;;;;26.95;16.52;;;4.80;99.90;;;;;;5058231;28;20438;-51
2021/11/16 04:07:40;;;;;;;30.48;17.30;;;4.80;99.90;;;;;;5069100;28;20031;-51
2021/11/16 04:10:11;;;;;;;28.85;17.33;;;4.80;99.90;;;;;;5067423;28;20020;-54
2021/11/16 04:12:38;;;;;;;26.23;16.55;;;4.80;99.90;;;;;;5068833;28;20038;-55
2021/11/16 04:15:05;;;;;;;31.02;17.80;;;4.80;99.90;;;;;;5066231;28;20753;-56
2021/11/16 04:17:32;;;;;;;28.13;17.75;;;4.80;99.90;;;;;;5048844;28;20059;-56
2021/11/16 04:19:59;;;;;;;26.35;17.05;;;4.80;99.90;;;;;;5065647;28;20032;-53
2021/11/16 04:22:26;;;;;;;29.55;17.50;;;4.80;99.90;;;;;;5067679;28;20020;-55
2021/11/16 04:24:52;;;;;;;30.17;18.67;;;4.80;99.90;;;;;;5053702;28;20056;-55
2021/11/16 04:27:17;;;;;;;31.15;17.92;;;4.80;99.90;;;;;;5069175;28;20051;-56
2021/11/16 04:29:43;;;;;;;29.30;17.60;;;4.80;99.90;;;;;;5068368;28;20032;-54
2021/11/16 04:32:09;;;;;;;28.58;17.35;;;4.80;99.90;;;;;;5068866;28;20643;-53
2021/11/16 04:34:34;;;;;;;31.00;17.50;;;4.80;99.90;;;;;;5069116;28;20063;-54
2021/11/16 04:37:00;;;;;;;31.88;18.55;;;4.80;99.90;;;;;;5050576;28;20484;-52
2021/11/16 04:39:25;;;;;;;29.50;17.88;;;4.80;99.90;;;;;;5049227;28;20057;-53
2021/11/16 04:41:51;;;;;;;30.45;18.33;;;4.80;99.90;;;;;;5048662;28;20033;-53
2021/11/16 04:44:18;;;;;;;32.70;18.42;;;4.80;99.90;;;;;;5048742;28;20043;-56
2021/11/16 04:46:45;;;;;;;27.77;18.10;;;4.80;99.90;;;;;;5058245;28;20078;-52
2021/11/16 04:49:19;;;;;;;27.08;17.92;;;4.70;99.90;;;;;;5049152;28;20025;-56
2021/11/16 05:02:40;;;;;;;27.77;17.48;;;4.70;99.90;;;;;;5061185;28;20124;-54
2021/11/16 05:05:13;;;;;;;30.27;17.05;;;4.70;99.90;;;;;;5052228;28;20104;-56
2021/11/16 05:07:55;;;;;;;29.00;17.63;;;4.70;99.90;;;;;;5048407;28;20036;-58
2021/11/16 05:10:22;;;;;;;29.20;17.65;;;4.70;99.90;;;;;;5065660;28;20024;-52
2021/11/16 05:12:48;;;;;;;30.40;19.35;;;4.70;99.90;;;;;;5045629;28;20499;-56
2021/11/16 05:15:17;;;;;;;29.63;18.23;;;4.70;99.90;;;;;;5054241;28;20098;-54
2021/11/16 05:17:48;;;;;;;31.83;20.40;;;4.70;99.90;;;;;;5048023;28;20078;-55
2021/11/16 05:20:16;;;;;;;32.10;18.90;;;4.70;99.90;;;;;;5049001;28;20025;-54
2021/11/16 05:22:42;;;;;;;32.80;19.00;;;4.70;99.90;;;;;;5065104;28;20032;-53
2021/11/16 05:25:09;;;;;;;34.25;19.70;;;4.70;99.90;;;;;;5052808;28;20104;-56
2021/11/16 05:27:35;;;;;;;30.70;19.02;;;4.70;99.90;;;;;;5050176;28;20028;-53
2021/11/16 05:30:03;;;;;;;28.42;17.10;;;4.70;99.90;;;;;;5053130;28;20095;-53
2021/11/16 05:32:29;;;;;;;32.90;18.73;;;4.70;99.90;;;;;;5055947;28;20051;-55
2021/11/16 05:34:55;;;;;;;33.38;18.92;;;4.70;99.90;;;;;;5048415;28;20500;-55
2021/11/16 05:37:21;;;;;;;34.10;18.48;;;4.70;99.90;;;;;;5066798;28;20029;-58
2021/11/16 05:39:46;;;;;;;31.50;18.70;;;4.70;99.90;;;;;;5054872;28;20512;-57
2021/11/16 05:42:12;;;;;;;34.13;20.80;;;4.70;99.90;;;;;;5047714;28;20033;-54
2021/11/16 05:44:38;;;;;;;34.42;20.55;;;4.70;99.90;;;;;;5059317;28;20113;-56
2021/11/16 05:47:04;;;;;;;32.47;18.65;;;4.70;99.90;;;;;;5064229;28;20074;-54
2021/11/16 05:49:33;;;;;;;33.70;19.98;;;4.70;99.90;;;;;;5065677;28;20033;-54
2021/11/16 05:52:03;;;;;;;33.80;20.60;;;4.70;99.90;;;;;;5050033;28;20093;-52
2021/11/16 05:54:34;;;;;;;29.13;18.13;;;4.70;99.90;;;;;;5057243;28;20091;-55
2021/11/16 05:57:06;;;;;;;31.00;18.98;;;4.70;99.90;;;;;;5063006;28;20037;-54
2021/11/16 05:59:36;;;;;;;27.40;18.10;;;4.60;99.90;;;;;;5066864;28;20029;-56
2021/11/16 06:02:04;;;;;;;29.60;19.45;;;4.60;99.90;;;;;;5068019;28;20067;-53
2021/11/16 06:04:29;;;;;;;28.55;18.02;;;4.60;99.90;;;;;;5060330;28;20021;-54
2021/11/16 06:06:55;;;;;;;31.15;18.05;;;4.60;99.90;;;;;;5064655;28;20040;-56
2021/11/16 06:09:21;;;;;;;31.63;18.30;;;4.60;99.90;;;;;;5066539;28;20258;-54
2021/11/16 06:11:46;;;;;;;30.55;18.17;;;4.60;99.90;;;;;;5051807;28;20036;-53
2021/11/16 06:14:12;;;;;;;30.58;18.58;;;4.60;99.90;;;;;;5054458;28;20050;-56
2021/11/16 06:16:38;;;;;;;27.00;17.42;;;4.60;99.90;;;;;;5042865;28;20634;-57
2021/11/16 06:19:06;;;;;;;26.02;17.38;;;4.60;99.90;;;;;;5038755;28;20031;-55
2021/11/16 06:21:32;;;;;;;25.92;17.08;;;4.60;99.90;;;;;;5051807;28;20050;-59
2021/11/16 06:23:59;;;;;;;27.13;15.77;;;4.60;99.90;;;;;;5051769;28;20051;-57
2021/11/16 06:26:27;;;;;;;23.80;15.90;;;4.60;99.90;;;;;;5060741;28;20031;-57
2021/11/16 06:28:52;;;;;;;21.42;14.63;;;4.60;99.90;;;;;;5069523;28;20052;-56
2021/11/16 06:31:21;;;;;;;25.90;16.77;;;4.60;99.90;;;;;;5055360;28;20060;-57
2021/11/16 06:33:47;;;;;;;25.30;15.88;;;4.60;99.90;;;;;;5050955;28;20025;-56
2021/11/16 06:36:13;;;;;;;28.88;17.17;;;4.60;99.90;;;;;;5051384;28;20021;-56
2021/11/16 06:38:39;;;;;;;25.42;16.65;;;4.60;99.90;;;;;;5033359;28;20029;-53
2021/11/16 06:41:05;;;;;;;26.48;15.98;;;4.60;99.90;;;;;;5033488;28;20025;-56
2021/11/16 06:43:32;;;;;;;23.02;15.15;;;4.60;99.90;;;;;;5067377;28;20029;-56
2021/11/16 06:46:00;;;;;;;22.13;15.02;;;4.60;99.90;;;;;;5070522;28;20020;-52
2021/11/16 06:48:27;;;;;;;24.60;16.02;;;4.60;99.90;;;;;;5071051;28;20043;-57
2021/11/16 06:50:54;;;;;;;22.33;15.25;;;4.60;99.90;;;;;;5053014;28;20040;-57
2021/11/16 06:53:28;;;;;;;25.27;15.40;;;4.60;99.90;;;;;;5071200;28;20484;-54
2021/11/16 06:55:55;;;;;;;22.40;15.30;;;4.60;99.90;;;;;;5070754;28;20141;-55
2021/11/16 06:58:22;;;;;;;23.50;15.52;;;4.60;99.90;;;;;;5069463;28;20031;-56
2021/11/16 07:00:48;;;;;;;27.65;15.65;;;4.60;99.90;;;;;;5071194;28;20043;-57
2021/11/16 07:03:18;;;;;;;25.67;16.67;;;4.60;99.90;;;;;;5053236;28;20108;-54
2021/11/16 07:05:55;;;;;;;26.30;15.93;;;4.60;99.90;;;;;;5069429;28;20025;-52
2021/11/16 07:08:42;;;;;;;22.42;15.45;;;4.60;99.90;;;;;;5070734;28;20388;-55
2021/11/16 07:11:19;;;;;;;22.42;14.50;;;4.60;99.90;;;;;;5070066;28;20112;-55
2021/11/16 07:14:06;;;;;;;22.90;15.05;;;4.60;99.90;;;;;;5070317;28;20047;-57
2021/11/16 07:16:38;;;;;;;22.25;14.35;;;4.60;99.90;;;;;;5065493;28;20078;-54
2021/11/16 07:19:08;;;;;;;21.52;13.70;;;4.50;99.90;;;;;;5050865;28;20025;-54
2021/11/16 07:21:49;;;;;;;25.13;16.75;;;4.50;99.90;;;;;;5050175;28;20385;-55
2021/11/16 07:24:28;;;;;;;26.38;16.75;;;4.50;99.90;;;;;;5050455;28;20105;-56
2021/11/16 07:26:57;;;;;;;26.33;14.43;;;4.60;99.90;;;;;;5067036;28;20029;-57
2021/11/16 07:29:41;;;;;;;25.65;15.48;;;4.50;99.90;;;;;;5057661;28;20583;-52
2021/11/16 07:32:10;;;;;;;27.48;16.40;;;4.60;99.90;;;;;;5069922;28;20491;-55
2021/11/16 07:34:38;;;;;;;23.27;15.00;;;4.50;99.90;;;;;;5037894;28;20134;-54
2021/11/16 07:37:20;;;;;;;23.95;15.02;;;4.60;99.90;;;;;;5048942;28;20056;-54
2021/11/16 07:40:01;;;;;;;22.58;15.02;;;4.60;99.90;;;;;;5045274;28;20074;-57
2021/11/16 07:42:33;;;;;;;25.52;16.27;;;4.60;99.90;;;;;;5032121;28;20021;-55
2021/11/16 07:45:09;;;;;;;21.40;14.93;;;4.60;99.90;;;;;;5036748;28;20021;-51
2021/11/16 07:47:47;;;;;;;27.52;16.85;;;4.60;99.90;;;;;;5064478;28;20103;-58
2021/11/16 07:50:20;;;;;;;27.98;17.65;;;4.60;99.90;;;;;;5049308;28;20055;-55
2021/11/16 07:52:48;;;;;;;21.98;15.05;;;4.60;99.90;;;;;;5049986;28;20033;-53
2021/11/16 07:55:25;;;;;;;26.27;15.60;;;4.60;99.90;;;;;;5038586;28;20032;-56
2021/11/16 07:57:51;;;;;;;21.98;15.38;;;4.60;99.90;;;;;;5069218;28;20032;-54
2021/11/16 08:00:25;;;;;;;25.80;16.33;;;4.60;99.90;;;;;;5059364;28;20025;-54
2021/11/16 08:03:00;;;;;;;24.58;17.20;;;4.60;99.90;;;;;;5031576;28;20111;-57
2021/11/16 08:05:38;;;;;;;26.17;16.98;;;4.60;99.90;;;;;;5037078;28;20053;-51
2021/11/16 08:11:05;;;;;;;23.58;16.05;;;4.60;99.90;;;;;;5056403;28;20028;-56
2021/11/16 08:13:34;;;;;;;27.17;15.73;;;4.70;99.90;;;;;;5062301;28;20044;-52
2021/11/16 08:16:14;;;;;;;24.73;15.68;;;4.70;99.90;;;;;;5063635;28;20073;-56
2021/11/16 08:18:51;;;;;;;24.23;15.52;;;4.70;99.90;;;;;;5050707;28;20032;-53
2021/11/16 08:21:17;;;;;;;24.02;15.35;;;4.70;99.90;;;;;;5031498;28;20032;-52
2021/11/16 08:23:52;;;;;;;23.17;15.05;;;4.70;99.90;;;;;;5031117;28;20139;-51
2021/11/16 08:26:19;;;;;;;23.50;16.13;;;4.70;99.90;;;;;;5030948;28;20048;-54
2021/11/16 08:28:47;;;;;;;27.00;17.02;;;4.70;99.90;;;;;;5030821;28;20021;-57
2021/11/16 08:31:13;;;;;;;30.77;17.92;;;4.70;99.90;;;;;;5048869;28;20100;-52
2021/11/16 08:33:41;;;;;;;26.15;16.80;;;4.70;99.90;;;;;;5030907;28;20021;-54
2021/11/16 08:36:07;;;;;;;22.85;16.85;;;4.70;99.90;;;;;;5030902;28;20028;-53
2021/11/16 08:38:37;;;;;;;27.50;18.13;;;4.80;99.90;;;;;;5048072;28;20025;-54
2021/11/16 08:41:04;;;;;;;26.83;16.65;;;4.80;99.90;;;;;;5048994;28;20489;-56
2021/11/16 08:43:37;;;;;;;26.60;17.30;;;4.80;99.90;;;;;;5048535;28;20029;-54
2021/11/16 08:46:04;;;;;;;26.23;16.63;;;4.70;99.90;;;;;;5031187;28;20497;-57
2021/11/16 08:48:31;;;;;;;26.08;16.67;;;4.70;99.90;;;;;;5050689;28;20462;-55
2021/11/16 08:51:08;;;;;;;26.80;16.77;;;4.70;99.90;;;;;;5068645;28;20032;-54
2021/11/16 08:53:38;;;;;;;27.02;15.48;;;4.70;99.90;;;;;;5068412;28;20577;-51
2021/11/16 08:56:13;;;;;;;23.85;15.13;;;4.70;99.90;;;;;;5050429;28;20029;-53
2021/11/16 08:58:39;;;;;;;28.60;17.58;;;4.80;99.90;;;;;;5068017;28;20035;-57
2021/11/16 09:01:07;;;;;;;25.45;17.30;;;4.80;99.90;;;;;;5055453;28;20029;-56
2021/11/16 09:03:39;;;;;;;31.17;18.25;;;4.80;99.90;;;;;;5050762;28;20601;-56
2021/11/16 09:06:23;;;;;;;29.45;18.10;;;4.80;99.90;;;;;;5048777;28;20045;-54
2021/11/16 09:09:11;;;;;;;29.50;17.83;;;4.70;99.90;;;;;;5047732;28;20028;-56
2021/11/16 09:11:37;;;;;;;29.10;18.83;;;4.80;99.90;;;;;;5050965;28;20492;-52
2021/11/16 09:14:13;;;;;;;30.25;19.15;;;4.80;99.90;;;;;;5051884;28;20065;-58
2021/11/16 09:16:41;;;;;;;27.58;18.42;;;4.80;99.90;;;;;;5053160;28;20017;-52
2021/11/16 09:19:07;;;;;;;27.23;16.70;;;4.80;99.90;;;;;;5036055;28;20112;-52
2021/11/16 09:21:39;;;;;;;26.58;16.73;;;4.90;99.90;;;;;;5041208;28;20028;-53
2021/11/16 09:24:08;;;;;;;27.48;17.20;;;4.80;99.90;;;;;;5058551;28;20152;-52
2021/11/16 09:29:21;;;;;;;25.55;17.08;;;4.80;99.90;;;;;;5048248;28;20044;-55
2021/11/16 09:31:48;;;;;;;29.15;18.23;;;4.90;99.90;;;;;;5052264;28;20024;-53
2021/11/16 09:34:16;;;;;;;31.00;17.50;;;4.90;99.90;;;;;;5049937;28;20024;-53
2021/11/16 09:37:03;;;;;;;27.25;17.92;;;4.80;99.90;;;;;;5065666;28;20031;-53
2021/11/16 09:39:45;;;;;;;26.98;17.10;;;4.90;99.90;;;;;;5050621;28;20480;-54
2021/11/16 09:42:14;;;;;;;28.80;18.48;;;4.90;99.90;;;;;;5049454;28;20112;-51
2021/11/16 09:44:43;;;;;;;31.15;18.95;;;4.90;99.90;;;;;;5051840;28;20055;-52
2021/11/16 09:47:15;;;;;;;30.75;19.35;;;4.90;99.90;;;;;;5051857;28;20033;-52
2021/11/16 09:49:44;;;;;;;30.17;18.08;;;4.90;99.90;;;;;;5051589;28;20021;-52
2021/11/16 09:52:15;;;;;;;33.80;20.92;;;4.90;99.90;;;;;;5061680;28;20033;-52
2021/11/16 09:55:08;;;;;;;31.55;19.30;;;4.90;99.90;;;;;;5058203;28;20040;-54
2021/11/16 09:57:54;;;;;;;31.23;20.08;;;4.90;99.90;;;;;;5051356;28;20436;-56
2021/11/16 10:00:24;;;;;;;30.20;19.77;;;4.90;99.90;;;;;;5017391;28;20060;-55
2021/11/16 10:03:12;;;;;;;30.02;19.52;;;4.90;99.90;;;;;;5066956;28;20082;-56
2021/11/16 10:06:17;;;;;;;30.73;18.75;;;4.90;99.90;;;;;;5066683;28;20102;-53
2021/11/16 10:08:43;;;;;;;33.50;20.17;;;4.90;99.90;;;;;;5059727;28;20059;-56
2021/11/16 10:11:09;;;;;;;30.50;19.27;;;4.90;99.90;;;;;;5053174;28;20064;-56
2021/11/16 10:13:35;;;;;;;34.38;20.33;;;4.90;99.90;;;;;;5053783;28;20067;-57
2021/11/16 10:16:04;;;;;;;32.05;20.08;;;4.90;99.90;;;;;;5070834;28;20175;-53
2021/11/16 10:18:31;;;;;;;36.20;21.85;;;4.90;99.90;;;;;;5070047;28;20427;-56
2021/11/16 10:20:57;;;;;;;30.05;19.52;;;4.90;99.90;;;;;;5053301;28;20404;-53
2021/11/16 10:23:48;;;;;;;35.22;21.48;;;5.00;99.90;;;;;;5070008;28;20029;-56
2021/11/16 10:26:14;;;;;;;36.00;20.77;;;4.90;99.90;;;;;;5052331;28;20492;-55
2021/11/16 10:28:44;;;;;;;36.08;21.10;;;4.90;99.90;;;;;;5064158;28;20021;-57
2021/11/16 10:31:11;;;;;;;38.20;20.92;;;4.90;99.90;;;;;;5051685;28;20489;-53
2021/11/16 10:33:42;;;;;;;39.40;22.67;;;4.90;99.90;;;;;;5051146;28;20025;-53
2021/11/16 10:36:14;;;;;;;34.05;20.48;;;4.90;99.90;;;;;;5032916;28;20623;-53
2021/11/16 10:38:50;;;;;;;40.63;21.58;;;4.90;99.90;;;;;;5050742;28;20385;-53
2021/11/16 10:41:20;;;;;;;33.80;19.95;;;4.90;99.90;;;;;;5033989;28;20174;-55
2021/11/16 10:43:52;;;;;;;36.40;21.05;;;4.90;99.90;;;;;;5063305;28;20044;-52
2021/11/16 10:46:19;;;;;;;38.45;21.67;;;4.90;99.90;;;;;;5052927;28;20013;-56
2021/11/16 10:48:50;;;;;;;34.72;19.58;;;4.90;99.90;;;;;;5062327;28;20115;-56
2021/11/16 10:51:17;;;;;;;34.60;22.30;;;4.90;99.90;;;;;;5051917;28;20079;-56
2021/11/16 10:53:54;;;;;;;38.22;23.05;;;4.90;99.90;;;;;;5032822;28;20029;-55
2021/11/16 10:56:26;;;;;;;36.78;23.40;;;4.90;99.90;;;;;;5050734;28;20399;-56
2021/11/16 10:58:52;;;;;;;36.00;22.70;;;4.90;99.90;;;;;;5032789;28;20120;-52
2021/11/16 11:01:23;;;;;;;32.15;20.35;;;4.90;99.90;;;;;;5055563;28;20032;-54
2021/11/16 11:03:51;;;;;;;34.45;21.63;;;4.90;99.90;;;;;;5070047;28;20136;-55
2021/11/16 11:06:38;;;;;;;37.85;21.00;;;4.90;99.90;;;;;;5059081;28;20415;-54
2021/11/16 11:09:06;;;;;;;36.13;21.80;;;5.00;99.90;;;;;;5069621;28;20070;-56
2021/11/16 11:11:33;;;;;;;33.65;22.17;;;5.00;99.90;;;;;;5058816;28;20052;-54
2021/11/16 11:14:06;;;;;;;35.58;20.40;;;5.00;99.90;;;;;;5049803;28;20078;-55
2021/11/16 11:16:36;;;;;;;37.08;21.52;;;5.00;99.90;;;;;;5060804;28;20020;-53
2021/11/16 11:19:03;;;;;;;40.97;21.00;;;5.00;99.90;;;;;;5069788;28;20017;-55
2021/11/16 11:21:42;;;;;;;37.80;21.83;;;5.00;99.90;;;;;;5059723;28;20028;-53
2021/11/16 11:24:18;;;;;;;34.47;21.15;;;5.00;99.90;;;;;;5068211;28;20054;-55
2021/11/16 11:26:53;;;;;;;32.72;20.58;;;5.10;99.90;;;;;;5065076;28;20036;-54
2021/11/16 11:30:03;;;;;;;31.97;20.50;;;5.10;99.90;;;;;;5032054;28;20048;-54
2021/11/16 11:32:36;;;;;;;36.85;21.50;;;5.10;99.90;;;;;;5049856;28;20036;-52
2021/11/16 11:35:27;;;;;;;34.63;19.98;;;5.10;99.90;;;;;;5050187;28;20068;-55
2021/11/16 11:38:10;;;;;;;40.08;22.00;;;5.10;99.90;;;;;;5049057;28;20028;-53
2021/11/16 11:40:39;;;;;;;35.65;20.50;;;5.10;99.90;;;;;;5052186;28;20152;-53
2021/11/16 11:43:08;;;;;;;40.75;21.35;;;5.10;99.90;;;;;;5054420;28;20090;-54
2021/11/16 11:45:39;;;;;;;39.70;22.25;;;5.10;99.90;;;;;;5050142;28;20029;-54
2021/11/16 11:48:13;;;;;;;37.67;21.70;;;5.10;99.90;;;;;;5049656;28;20120;-52
2021/11/16 11:50:43;;;;;;;37.95;21.77;;;5.10;99.90;;;;;;5032081;28;20040;-55
2021/11/16 11:53:12;;;;;;;35.70;21.92;;;5.10;99.90;;;;;;5049681;28;20559;-54
2021/11/16 11:55:47;;;;;;;40.20;22.50;;;5.10;99.90;;;;;;5067819;28;20045;-55
2021/11/16 11:58:16;;;;;;;43.70;22.85;;;5.10;99.90;;;;;;5069678;28;20031;-54
2021/11/16 12:00:44;;;;;;;36.88;21.20;;;5.10;99.90;;;;;;5049866;28;20374;-54
2021/11/16 12:03:11;;;;;;;37.30;23.52;;;5.10;99.90;;;;;;5031391;28;20107;-51
2021/11/16 12:05:43;;;;;;;34.03;20.77;;;5.10;99.90;;;;;;5050967;28;20061;-56
2021/11/16 12:08:10;;;;;;;38.20;21.55;;;5.10;99.90;;;;;;5068717;28;20095;-55
2021/11/16 12:10:38;;;;;;;43.30;22.08;;;5.10;99.90;;;;;;5068066;28;20111;-51
2021/11/16 12:13:06;;;;;;;32.20;19.27;;;5.10;99.90;;;;;;5069281;28;20059;-53
2021/11/16 12:15:39;;;;;;;38.78;22.65;;;5.10;99.90;;;;;;5068891;28;20032;-51
2021/11/16 12:18:05;;;;;;;38.25;20.85;;;5.10;99.90;;;;;;5067872;28;20016;-52
2021/11/16 12:20:36;;;;;;;36.80;19.65;;;5.10;99.90;;;;;;5047897;28;20519;-55
2021/11/16 12:23:03;;;;;;;35.53;20.98;;;5.10;99.90;;;;;;5050947;28;20027;-55
2021/11/16 12:25:29;;;;;;;30.17;19.13;;;5.10;99.90;;;;;;5039721;28;20055;-54
2021/11/16 12:27:55;;;;;;;35.80;20.02;;;5.10;99.90;;;;;;5031433;28;20025;-54
2021/11/16 12:30:34;;;;;;;37.58;19.27;;;5.10;99.90;;;;;;5049001;28;20393;-54
2021/11/16 12:33:00;;;;;;;37.28;19.52;;;5.10;99.90;;;;;;5030580;28;20033;-53
2021/11/16 12:35:26;;;;;;;31.63;18.60;;;5.10;99.90;;;;;;5048235;28;20104;-51
2021/11/16 12:37:56;;;;;;;31.20;19.90;;;5.10;99.90;;;;;;5048355;28;20147;-54
2021/11/16 12:40:30;;;;;;;35.50;20.30;;;5.10;99.90;;;;;;5048199;28;20028;-54
2021/11/16 12:43:24;;;;;;;33.83;19.92;;;5.10;99.90;;;;;;5047974;28;20201;-52
2021/11/16 12:45:59;;;;;;;35.03;19.45;;;5.10;99.90;;;;;;5030524;28;20032;-57
2021/11/16 12:49:03;;;;;;;37.38;20.25;;;5.10;99.90;;;;;;5049474;28;20048;-57
2021/11/16 12:51:34;;;;;;;37.88;19.25;;;5.10;99.90;;;;;;5047665;28;20436;-52
2021/11/16 12:54:05;;;;;;;38.90;19.50;;;5.10;99.90;;;;;;5030399;28;20025;-56
2021/11/16 12:56:42;;;;;;;38.30;20.33;;;5.10;99.90;;;;;;5048560;28;20028;-55
2021/11/16 12:59:31;;;;;;;37.30;20.25;;;5.10;99.90;;;;;;5029977;28;20043;-52
2021/11/16 13:02:03;;;;;;;34.92;18.08;;;5.10;99.90;;;;;;5025527;28;20497;-51
2021/11/16 13:04:46;;;;;;;38.92;20.20;;;5.10;99.90;;;;;;5061124;28;20117;-55
2021/11/16 13:07:20;;;;;;;33.67;18.90;;;5.10;99.90;;;;;;5048910;28;20075;-53